sensor_id;sensor_type;location;lat;lon;timestamp;pressure;altitude;pressure_sealevel;temperature;humidity
76229;BME280;65021;53.174;18.160;2023-10-09T00:01:44;101936.98;;;2.30;100.00
76229;BME280;65021;53.174;18.160;2023-10-09T00:04:11;101929.76;;;2.32;100.00
76229;BME280;65021;53.174;18.160;2023-10-09T00:06:40;101919.36;;;2.38;100.00
76229;BME280;65021;53.174;18.160;2023-10-09T00:09:09;101917.33;;;2.44;100.00
76229;BME280;65021;53.174;18.160;2023-10-09T00:11:52;101912.21;;;2.50;100.00
76229;BME280;65021;53.174;18.160;2023-10-09T00:14:25;101907.11;;;2.55;100.00
76229;BME280;65021;53.174;18.160;2023-10-09T00:16:52;101908.70;;;2.57;100.00
76229;BME280;65021;53.174;18.160;2023-10-09T00:19:37;101902.66;;;2.59;100.00
76229;BME280;65021;53.174;18.160;2023-10-09T00:22:04;101907.75;;;2.61;100.00
76229;BME280;65021;53.174;18.160;2023-10-09T00:24:48;101908.75;;;2.62;100.00
76229;BME280;65021;53.174;18.160;2023-10-09T00:27:17;101894.37;;;2.63;100.00
76229;BME280;65021;53.174;18.160;2023-10-09T00:29:49;101881.65;;;2.64;100.00
76229;BME280;65021;53.174;18.160;2023-10-09T00:32:20;101874.44;;;2.63;100.00
76229;BME280;65021;53.174;18.160;2023-10-09T00:34:53;101867.00;;;2.62;100.00
76229;BME280;65021;53.174;18.160;2023-10-09T00:37:25;101858.03;;;2.60;100.00
76229;BME280;65021;53.174;18.160;2023-10-09T00:39:53;101863.39;;;2.58;100.00
76229;BME280;65021;53.174;18.160;2023-10-09T00:42:26;101879.88;;;2.55;100.00
76229;BME280;65021;53.174;18.160;2023-10-09T00:44:56;101883.96;;;2.48;100.00
76229;BME280;65021;53.174;18.160;2023-10-09T00:47:23;101880.73;;;2.42;100.00
76229;BME280;65021;53.174;18.160;2023-10-09T00:49:57;101876.95;;;2.38;100.00
76229;BME280;65021;53.174;18.160;2023-10-09T00:52:30;101883.36;;;2.32;100.00
76229;BME280;65021;53.174;18.160;2023-10-09T00:55:02;101876.86;;;2.26;100.00
76229;BME280;65021;53.174;18.160;2023-10-09T00:58:03;101871.61;;;2.24;100.00
76229;BME280;65021;53.174;18.160;2023-10-09T01:00:38;101861.05;;;2.23;100.00
76229;BME280;65021;53.174;18.160;2023-10-09T01:03:14;101863.77;;;2.25;100.00
76229;BME280;65021;53.174;18.160;2023-10-09T01:06:01;101862.92;;;2.29;100.00
76229;BME280;65021;53.174;18.160;2023-10-09T01:08:54;101859.71;;;2.34;100.00
76229;BME280;65021;53.174;18.160;2023-10-09T01:11:38;101860.85;;;2.35;100.00
76229;BME280;65021;53.174;18.160;2023-10-09T01:14:30;101861.52;;;2.37;100.00
76229;BME280;65021;53.174;18.160;2023-10-09T01:17:04;101859.73;;;2.42;100.00
76229;BME280;65021;53.174;18.160;2023-10-09T01:19:38;101853.13;;;2.45;100.00
76229;BME280;65021;53.174;18.160;2023-10-09T01:22:12;101849.29;;;2.47;100.00
76229;BME280;65021;53.174;18.160;2023-10-09T01:24:45;101846.69;;;2.49;100.00
76229;BME280;65021;53.174;18.160;2023-10-09T01:27:16;101841.80;;;2.52;100.00
76229;BME280;65021;53.174;18.160;2023-10-09T01:29:43;101843.65;;;2.55;100.00
76229;BME280;65021;53.174;18.160;2023-10-09T01:32:10;101847.71;;;2.58;100.00
76229;BME280;65021;53.174;18.160;2023-10-09T01:34:45;101858.35;;;2.58;100.00
76229;BME280;65021;53.174;18.160;2023-10-09T01:37:15;101865.37;;;2.55;100.00
76229;BME280;65021;53.174;18.160;2023-10-09T01:39:45;101859.95;;;2.55;100.00
76229;BME280;65021;53.174;18.160;2023-10-09T01:42:14;101862.53;;;2.56;100.00
76229;BME280;65021;53.174;18.160;2023-10-09T01:45:11;101846.75;;;2.61;100.00
76229;BME280;65021;53.174;18.160;2023-10-09T01:47:38;101846.25;;;2.64;100.00
76229;BME280;65021;53.174;18.160;2023-10-09T01:50:07;101841.21;;;2.69;100.00
76229;BME280;65021;53.174;18.160;2023-10-09T01:52:54;101845.77;;;2.72;100.00
76229;BME280;65021;53.174;18.160;2023-10-09T01:55:21;101846.95;;;2.75;100.00
76229;BME280;65021;53.174;18.160;2023-10-09T01:58:07;101846.08;;;2.78;100.00
76229;BME280;65021;53.174;18.160;2023-10-09T02:00:51;101842.42;;;2.81;100.00
76229;BME280;65021;53.174;18.160;2023-10-09T02:03:25;101846.65;;;2.84;100.00
76229;BME280;65021;53.174;18.160;2023-10-09T02:05:55;101847.23;;;2.87;100.00
76229;BME280;65021;53.174;18.160;2023-10-09T02:08:44;101844.06;;;2.89;100.00
76229;BME280;65021;53.174;18.160;2023-10-09T02:11:16;101833.90;;;2.90;100.00
76229;BME280;65021;53.174;18.160;2023-10-09T02:13:51;101830.66;;;2.91;100.00
76229;BME280;65021;53.174;18.160;2023-10-09T02:16:22;101831.02;;;2.93;100.00
76229;BME280;65021;53.174;18.160;2023-10-09T02:19:08;101832.02;;;2.95;100.00
76229;BME280;65021;53.174;18.160;2023-10-09T02:21:54;101830.89;;;2.97;100.00
76229;BME280;65021;53.174;18.160;2023-10-09T02:24:24;101827.27;;;2.98;100.00
76229;BME280;65021;53.174;18.160;2023-10-09T02:27:10;101822.91;;;3.01;100.00
76229;BME280;65021;53.174;18.160;2023-10-09T02:29:38;101813.88;;;3.03;100.00
76229;BME280;65021;53.174;18.160;2023-10-09T02:32:07;101814.65;;;3.04;100.00
76229;BME280;65021;53.174;18.160;2023-10-09T02:34:40;101806.81;;;3.06;100.00
76229;BME280;65021;53.174;18.160;2023-10-09T02:37:08;101806.23;;;3.08;100.00
76229;BME280;65021;53.174;18.160;2023-10-09T02:39:39;101797.83;;;3.09;100.00
76229;BME280;65021;53.174;18.160;2023-10-09T02:42:49;101787.35;;;3.11;100.00
76229;BME280;65021;53.174;18.160;2023-10-09T02:45:16;101780.91;;;3.14;100.00
76229;BME280;65021;53.174;18.160;2023-10-09T02:47:45;101776.94;;;3.17;100.00
76229;BME280;65021;53.174;18.160;2023-10-09T02:50:15;101771.60;;;3.21;100.00
76229;BME280;65021;53.174;18.160;2023-10-09T02:52:48;101764.73;;;3.23;100.00
76229;BME280;65021;53.174;18.160;2023-10-09T02:55:27;101756.70;;;3.26;100.00
76229;BME280;65021;53.174;18.160;2023-10-09T02:57:55;101751.54;;;3.29;100.00
76229;BME280;65021;53.174;18.160;2023-10-09T03:00:46;101752.80;;;3.31;100.00
76229;BME280;65021;53.174;18.160;2023-10-09T03:03:14;101755.38;;;3.33;100.00
76229;BME280;65021;53.174;18.160;2023-10-09T03:05:45;101751.23;;;3.34;100.00
76229;BME280;65021;53.174;18.160;2023-10-09T03:08:11;101745.70;;;3.34;100.00
76229;BME280;65021;53.174;18.160;2023-10-09T03:10:43;101753.73;;;3.35;100.00
76229;BME280;65021;53.174;18.160;2023-10-09T03:13:09;101756.04;;;3.35;100.00
76229;BME280;65021;53.174;18.160;2023-10-09T03:15:38;101750.39;;;3.35;100.00
76229;BME280;65021;53.174;18.160;2023-10-09T03:18:05;101744.86;;;3.35;100.00
76229;BME280;65021;53.174;18.160;2023-10-09T03:20:31;101733.35;;;3.35;100.00
76229;BME280;65021;53.174;18.160;2023-10-09T03:22:58;101729.80;;;3.34;100.00
76229;BME280;65021;53.174;18.160;2023-10-09T03:25:27;101729.14;;;3.34;100.00
76229;BME280;65021;53.174;18.160;2023-10-09T03:27:54;101724.80;;;3.33;100.00
76229;BME280;65021;53.174;18.160;2023-10-09T03:30:23;101723.67;;;3.33;100.00
76229;BME280;65021;53.174;18.160;2023-10-09T03:32:52;101718.98;;;3.31;100.00
76229;BME280;65021;53.174;18.160;2023-10-09T03:35:21;101715.08;;;3.28;100.00
76229;BME280;65021;53.174;18.160;2023-10-09T03:37:57;101709.30;;;3.26;100.00
76229;BME280;65021;53.174;18.160;2023-10-09T03:40:26;101701.14;;;3.23;100.00
76229;BME280;65021;53.174;18.160;2023-10-09T03:42:58;101693.44;;;3.22;100.00
76229;BME280;65021;53.174;18.160;2023-10-09T03:45:27;101694.44;;;3.21;100.00
76229;BME280;65021;53.174;18.160;2023-10-09T03:48:01;101688.88;;;3.17;100.00
76229;BME280;65021;53.174;18.160;2023-10-09T03:50:35;101683.39;;;3.11;100.00
76229;BME280;65021;53.174;18.160;2023-10-09T03:53:05;101666.95;;;3.05;100.00
76229;BME280;65021;53.174;18.160;2023-10-09T03:55:35;101669.70;;;3.02;100.00
76229;BME280;65021;53.174;18.160;2023-10-09T03:58:04;101673.27;;;3.02;100.00
76229;BME280;65021;53.174;18.160;2023-10-09T04:00:31;101668.55;;;3.01;100.00
76229;BME280;65021;53.174;18.160;2023-10-09T04:03:01;101675.89;;;3.00;100.00
76229;BME280;65021;53.174;18.160;2023-10-09T04:05:29;101675.97;;;2.97;100.00
76229;BME280;65021;53.174;18.160;2023-10-09T04:07:55;101664.99;;;2.96;100.00
76229;BME280;65021;53.174;18.160;2023-10-09T04:10:25;101667.13;;;2.95;100.00
76229;BME280;65021;53.174;18.160;2023-10-09T04:13:10;101662.32;;;2.92;100.00
76229;BME280;65021;53.174;18.160;2023-10-09T04:15:43;101660.16;;;2.87;100.00
76229;BME280;65021;53.174;18.160;2023-10-09T04:18:09;101659.08;;;2.82;100.00
76229;BME280;65021;53.174;18.160;2023-10-09T04:20:45;101659.44;;;2.76;100.00
76229;BME280;65021;53.174;18.160;2023-10-09T04:23:30;101656.24;;;2.69;100.00
76229;BME280;65021;53.174;18.160;2023-10-09T04:26:02;101653.11;;;2.61;100.00
76229;BME280;65021;53.174;18.160;2023-10-09T04:28:40;101655.13;;;2.54;100.00
76229;BME280;65021;53.174;18.160;2023-10-09T04:31:08;101650.30;;;2.50;100.00
76229;BME280;65021;53.174;18.160;2023-10-09T04:33:35;101645.88;;;2.44;100.00
76229;BME280;65021;53.174;18.160;2023-10-09T04:36:09;101639.44;;;2.39;100.00
76229;BME280;65021;53.174;18.160;2023-10-09T04:38:45;101633.91;;;2.38;100.00
76229;BME280;65021;53.174;18.160;2023-10-09T04:41:31;101637.41;;;2.39;100.00
76229;BME280;65021;53.174;18.160;2023-10-09T04:44:21;101633.54;;;2.41;100.00
76229;BME280;65021;53.174;18.160;2023-10-09T04:47:02;101636.79;;;2.43;100.00
76229;BME280;65021;53.174;18.160;2023-10-09T04:49:41;101626.16;;;2.45;100.00
76229;BME280;65021;53.174;18.160;2023-10-09T04:52:17;101626.84;;;2.47;100.00
76229;BME280;65021;53.174;18.160;2023-10-09T04:54:58;101627.48;;;2.49;100.00
76229;BME280;65021;53.174;18.160;2023-10-09T04:57:48;101625.60;;;2.51;100.00
76229;BME280;65021;53.174;18.160;2023-10-09T05:00:27;101628.36;;;2.53;100.00
76229;BME280;65021;53.174;18.160;2023-10-09T05:02:58;101625.26;;;2.54;100.00
76229;BME280;65021;53.174;18.160;2023-10-09T05:05:39;101626.45;;;2.57;100.00
76229;BME280;65021;53.174;18.160;2023-10-09T05:10:49;101622.15;;;2.60;100.00
76229;BME280;65021;53.174;18.160;2023-10-09T05:13:27;101615.70;;;2.63;100.00
76229;BME280;65021;53.174;18.160;2023-10-09T05:16:16;101614.67;;;2.65;100.00
76229;BME280;65021;53.174;18.160;2023-10-09T05:18:53;101615.22;;;2.69;100.00
76229;BME280;65021;53.174;18.160;2023-10-09T05:21:31;101615.52;;;2.71;100.00
76229;BME280;65021;53.174;18.160;2023-10-09T05:24:01;101610.64;;;2.74;100.00
76229;BME280;65021;53.174;18.160;2023-10-09T05:26:42;101615.63;;;2.75;100.00
76229;BME280;65021;53.174;18.160;2023-10-09T05:29:16;101618.11;;;2.77;100.00
76229;BME280;65021;53.174;18.160;2023-10-09T05:31:51;101618.25;;;2.82;100.00
76229;BME280;65021;53.174;18.160;2023-10-09T05:34:31;101620.98;;;2.89;100.00
76229;BME280;65021;53.174;18.160;2023-10-09T05:37:04;101618.02;;;2.94;100.00
76229;BME280;65021;53.174;18.160;2023-10-09T05:39:49;101614.34;;;3.01;100.00
76229;BME280;65021;53.174;18.160;2023-10-09T05:42:32;101617.75;;;3.08;100.00
76229;BME280;65021;53.174;18.160;2023-10-09T05:45:15;101612.44;;;3.16;100.00
76229;BME280;65021;53.174;18.160;2023-10-09T05:48:01;101614.55;;;3.24;100.00
76229;BME280;65021;53.174;18.160;2023-10-09T05:50:30;101611.41;;;3.33;100.00
76229;BME280;65021;53.174;18.160;2023-10-09T05:53:02;101607.27;;;3.40;100.00
76229;BME280;65021;53.174;18.160;2023-10-09T05:55:29;101607.08;;;3.46;100.00
76229;BME280;65021;53.174;18.160;2023-10-09T05:58:15;101610.06;;;3.54;100.00
76229;BME280;65021;53.174;18.160;2023-10-09T06:01:00;101606.17;;;3.60;100.00
76229;BME280;65021;53.174;18.160;2023-10-09T06:03:32;101605.20;;;3.66;100.00
76229;BME280;65021;53.174;18.160;2023-10-09T06:06:17;101601.56;;;3.72;100.00
76229;BME280;65021;53.174;18.160;2023-10-09T06:09:13;101599.11;;;3.80;100.00
76229;BME280;65021;53.174;18.160;2023-10-09T06:11:46;101600.88;;;3.88;100.00
76229;BME280;65021;53.174;18.160;2023-10-09T06:14:23;101600.77;;;3.99;100.00
76229;BME280;65021;53.174;18.160;2023-10-09T06:16:58;101596.86;;;4.07;100.00
76229;BME280;65021;53.174;18.160;2023-10-09T06:19:42;101594.71;;;4.15;100.00
76229;BME280;65021;53.174;18.160;2023-10-09T06:22:11;101593.23;;;4.23;100.00
76229;BME280;65021;53.174;18.160;2023-10-09T06:24:41;101592.27;;;4.32;100.00
76229;BME280;65021;53.174;18.160;2023-10-09T06:27:09;101588.45;;;4.44;100.00
76229;BME280;65021;53.174;18.160;2023-10-09T06:29:37;101583.94;;;4.55;100.00
76229;BME280;65021;53.174;18.160;2023-10-09T06:32:24;101593.03;;;4.68;100.00
76229;BME280;65021;53.174;18.160;2023-10-09T06:35:01;101592.41;;;4.80;100.00
76229;BME280;65021;53.174;18.160;2023-10-09T06:37:49;101589.13;;;4.90;100.00
76229;BME280;65021;53.174;18.160;2023-10-09T06:40:39;101581.11;;;5.00;100.00
76229;BME280;65021;53.174;18.160;2023-10-09T06:43:21;101578.00;;;5.08;100.00
76229;BME280;65021;53.174;18.160;2023-10-09T06:45:49;101575.50;;;5.15;100.00
76229;BME280;65021;53.174;18.160;2023-10-09T06:48:42;101571.56;;;5.21;100.00
76229;BME280;65021;53.174;18.160;2023-10-09T06:51:13;101570.49;;;5.27;100.00
76229;BME280;65021;53.174;18.160;2023-10-09T06:53:42;101568.80;;;5.34;100.00
76229;BME280;65021;53.174;18.160;2023-10-09T06:56:30;101576.59;;;5.40;100.00
76229;BME280;65021;53.174;18.160;2023-10-09T06:58:57;101579.64;;;5.43;100.00
76229;BME280;65021;53.174;18.160;2023-10-09T07:01:25;101591.90;;;5.40;100.00
76229;BME280;65021;53.174;18.160;2023-10-09T07:03:52;101592.96;;;5.36;100.00
76229;BME280;65021;53.174;18.160;2023-10-09T07:06:22;101590.17;;;5.40;100.00
76229;BME280;65021;53.174;18.160;2023-10-09T07:09:15;101583.24;;;5.50;100.00
76229;BME280;65021;53.174;18.160;2023-10-09T07:11:46;101579.55;;;5.60;100.00
76229;BME280;65021;53.174;18.160;2023-10-09T07:14:22;101586.88;;;5.69;100.00
76229;BME280;65021;53.174;18.160;2023-10-09T07:17:06;101597.85;;;5.75;100.00
76229;BME280;65021;53.174;18.160;2023-10-09T07:19:52;101599.93;;;5.81;100.00
76229;BME280;65021;53.174;18.160;2023-10-09T07:22:22;101596.14;;;5.90;100.00
76229;BME280;65021;53.174;18.160;2023-10-09T07:24:56;101584.23;;;5.97;100.00
76229;BME280;65021;53.174;18.160;2023-10-09T07:27:24;101582.54;;;6.05;100.00
76229;BME280;65021;53.174;18.160;2023-10-09T07:30:13;101587.67;;;6.17;100.00
76229;BME280;65021;53.174;18.160;2023-10-09T07:33:07;101582.80;;;6.26;100.00
76229;BME280;65021;53.174;18.160;2023-10-09T07:35:42;101591.98;;;6.36;100.00
76229;BME280;65021;53.174;18.160;2023-10-09T07:38:16;101595.86;;;6.44;100.00
76229;BME280;65021;53.174;18.160;2023-10-09T07:40:47;101599.27;;;6.49;100.00
76229;BME280;65021;53.174;18.160;2023-10-09T07:43:28;101600.72;;;6.54;100.00
76229;BME280;65021;53.174;18.160;2023-10-09T07:46:02;101597.32;;;6.59;100.00
76229;BME280;65021;53.174;18.160;2023-10-09T07:48:31;101595.77;;;6.67;100.00
76229;BME280;65021;53.174;18.160;2023-10-09T07:51:20;101599.95;;;6.74;100.00
76229;BME280;65021;53.174;18.160;2023-10-09T07:53:52;101600.63;;;6.76;100.00
76229;BME280;65021;53.174;18.160;2023-10-09T07:56:37;101599.35;;;6.80;100.00
76229;BME280;65021;53.174;18.160;2023-10-09T07:59:12;101597.48;;;6.86;100.00
76229;BME280;65021;53.174;18.160;2023-10-09T08:01:44;101595.83;;;6.91;100.00
76229;BME280;65021;53.174;18.160;2023-10-09T08:04:29;101587.71;;;6.95;100.00
76229;BME280;65021;53.174;18.160;2023-10-09T08:07:10;101589.52;;;6.97;100.00
76229;BME280;65021;53.174;18.160;2023-10-09T08:09:46;101591.31;;;6.99;100.00
76229;BME280;65021;53.174;18.160;2023-10-09T08:12:37;101592.69;;;7.01;100.00
76229;BME280;65021;53.174;18.160;2023-10-09T08:15:13;101595.35;;;7.04;100.00
76229;BME280;65021;53.174;18.160;2023-10-09T08:17:50;101590.36;;;7.09;100.00
76229;BME280;65021;53.174;18.160;2023-10-09T08:20:27;101575.25;;;7.14;100.00
76229;BME280;65021;53.174;18.160;2023-10-09T08:23:02;101574.02;;;7.22;100.00
76229;BME280;65021;53.174;18.160;2023-10-09T08:25:31;101570.66;;;7.32;100.00
76229;BME280;65021;53.174;18.160;2023-10-09T08:28:20;101576.52;;;7.40;100.00
76229;BME280;65021;53.174;18.160;2023-10-09T08:31:13;101570.63;;;7.44;100.00
76229;BME280;65021;53.174;18.160;2023-10-09T08:34:00;101563.10;;;7.44;100.00
76229;BME280;65021;53.174;18.160;2023-10-09T08:36:29;101565.11;;;7.46;100.00
76229;BME280;65021;53.174;18.160;2023-10-09T08:39:02;101564.52;;;7.51;100.00
76229;BME280;65021;53.174;18.160;2023-10-09T08:41:44;101563.16;;;7.61;100.00
76229;BME280;65021;53.174;18.160;2023-10-09T08:44:12;101557.02;;;7.69;100.00
76229;BME280;65021;53.174;18.160;2023-10-09T08:46:42;101546.10;;;7.74;100.00
76229;BME280;65021;53.174;18.160;2023-10-09T08:49:09;101549.98;;;7.79;100.00
76229;BME280;65021;53.174;18.160;2023-10-09T08:51:37;101534.41;;;7.85;100.00
76229;BME280;65021;53.174;18.160;2023-10-09T08:54:06;101534.73;;;7.90;100.00
76229;BME280;65021;53.174;18.160;2023-10-09T08:56:37;101536.98;;;7.98;100.00
76229;BME280;65021;53.174;18.160;2023-10-09T08:59:06;101528.48;;;8.10;100.00
76229;BME280;65021;53.174;18.160;2023-10-09T09:01:32;101525.98;;;8.17;100.00
76229;BME280;65021;53.174;18.160;2023-10-09T09:04:00;101522.13;;;8.28;100.00
76229;BME280;65021;53.174;18.160;2023-10-09T09:06:36;101523.40;;;8.42;100.00
76229;BME280;65021;53.174;18.160;2023-10-09T09:09:11;101520.34;;;8.54;100.00
76229;BME280;65021;53.174;18.160;2023-10-09T09:11:41;101520.97;;;8.66;100.00
76229;BME280;65021;53.174;18.160;2023-10-09T09:14:15;101517.70;;;8.80;100.00
76229;BME280;65021;53.174;18.160;2023-10-09T09:16:48;101514.41;;;8.95;100.00
76229;BME280;65021;53.174;18.160;2023-10-09T09:19:15;101513.85;;;9.04;100.00
76229;BME280;65021;53.174;18.160;2023-10-09T09:21:56;101517.20;;;9.09;100.00
76229;BME280;65021;53.174;18.160;2023-10-09T09:24:25;101526.12;;;9.16;100.00
76229;BME280;65021;53.174;18.160;2023-10-09T09:26:54;101523.00;;;9.20;100.00
76229;BME280;65021;53.174;18.160;2023-10-09T09:32:05;101513.08;;;9.35;100.00
76229;BME280;65021;53.174;18.160;2023-10-09T09:34:50;101509.44;;;9.47;100.00
76229;BME280;65021;53.174;18.160;2023-10-09T09:37:32;101510.89;;;9.62;100.00
76229;BME280;65021;53.174;18.160;2023-10-09T09:40:20;101502.11;;;9.73;100.00
76229;BME280;65021;53.174;18.160;2023-10-09T09:43:00;101502.36;;;9.89;100.00
76229;BME280;65021;53.174;18.160;2023-10-09T09:45:37;101496.40;;;10.03;100.00
76229;BME280;65021;53.174;18.160;2023-10-09T09:48:13;101493.30;;;10.16;100.00
76229;BME280;65021;53.174;18.160;2023-10-09T09:50:43;101489.91;;;10.32;100.00
76229;BME280;65021;53.174;18.160;2023-10-09T09:53:14;101491.92;;;10.42;100.00
76229;BME280;65021;53.174;18.160;2023-10-09T09:55:54;101492.73;;;10.51;100.00
76229;BME280;65021;53.174;18.160;2023-10-09T09:58:24;101497.24;;;10.67;100.00
76229;BME280;65021;53.174;18.160;2023-10-09T10:00:56;101494.77;;;10.75;100.00
76229;BME280;65021;53.174;18.160;2023-10-09T10:03:38;101490.12;;;10.81;100.00
76229;BME280;65021;53.174;18.160;2023-10-09T10:06:10;101492.17;;;10.93;100.00
76229;BME280;65021;53.174;18.160;2023-10-09T10:08:41;101494.98;;;11.01;100.00
76229;BME280;65021;53.174;18.160;2023-10-09T10:14:14;101497.85;;;11.24;100.00
76229;BME280;65021;53.174;18.160;2023-10-09T10:19:59;101483.67;;;11.47;100.00
76229;BME280;65021;53.174;18.160;2023-10-09T10:23:17;101478.77;;;11.68;100.00
76229;BME280;65021;53.174;18.160;2023-10-09T10:25:45;101472.05;;;11.88;100.00
76229;BME280;65021;53.174;18.160;2023-10-09T10:28:26;101468.88;;;11.99;100.00
76229;BME280;65021;53.174;18.160;2023-10-09T10:31:08;101467.70;;;12.05;100.00
76229;BME280;65021;53.174;18.160;2023-10-09T10:36:26;101463.52;;;12.15;100.00
76229;BME280;65021;53.174;18.160;2023-10-09T10:39:00;101467.85;;;12.17;100.00
76229;BME280;65021;53.174;18.160;2023-10-09T10:41:31;101461.17;;;12.21;100.00
76229;BME280;65021;53.174;18.160;2023-10-09T10:44:05;101459.34;;;12.18;100.00
76229;BME280;65021;53.174;18.160;2023-10-09T10:47:12;101460.10;;;12.17;100.00
76229;BME280;65021;53.174;18.160;2023-10-09T10:50:02;101465.41;;;12.22;100.00
76229;BME280;65021;53.174;18.160;2023-10-09T10:53:11;101457.28;;;12.24;100.00
76229;BME280;65021;53.174;18.160;2023-10-09T10:55:58;101450.83;;;12.25;100.00
76229;BME280;65021;53.174;18.160;2023-10-09T10:58:54;101446.73;;;12.26;100.00
76229;BME280;65021;53.174;18.160;2023-10-09T11:01:33;101450.02;;;12.37;100.00
76229;BME280;65021;53.174;18.160;2023-10-09T11:04:20;101450.70;;;12.42;99.77
76229;BME280;65021;53.174;18.160;2023-10-09T11:07:11;101450.64;;;12.42;98.45
76229;BME280;65021;53.174;18.160;2023-10-09T11:09:47;101446.71;;;12.36;96.96
76229;BME280;65021;53.174;18.160;2023-10-09T11:15:12;101436.95;;;12.43;98.29
76229;BME280;65021;53.174;18.160;2023-10-09T11:18:02;101433.67;;;12.44;96.98
76229;BME280;65021;53.174;18.160;2023-10-09T11:20:35;101429.52;;;12.52;95.82
76229;BME280;65021;53.174;18.160;2023-10-09T11:23:03;101426.41;;;12.62;96.35
76229;BME280;65021;53.174;18.160;2023-10-09T11:25:43;101427.86;;;12.77;96.13
76229;BME280;65021;53.174;18.160;2023-10-09T11:28:21;101432.04;;;12.88;95.26
76229;BME280;65021;53.174;18.160;2023-10-09T11:31:06;101431.75;;;12.96;96.80
76229;BME280;65021;53.174;18.160;2023-10-09T11:33:47;101433.74;;;12.97;96.02
76229;BME280;65021;53.174;18.160;2023-10-09T11:36:16;101435.95;;;12.88;94.09
76229;BME280;65021;53.174;18.160;2023-10-09T11:38:42;101424.60;;;12.63;91.37
76229;BME280;65021;53.174;18.160;2023-10-09T11:41:15;101426.96;;;12.45;94.59
76229;BME280;65021;53.174;18.160;2023-10-09T11:43:51;101431.89;;;12.26;94.57
76229;BME280;65021;53.174;18.160;2023-10-09T11:46:19;101428.38;;;12.01;92.93
76229;BME280;65021;53.174;18.160;2023-10-09T11:49:14;101426.61;;;11.75;92.42
76229;BME280;65021;53.174;18.160;2023-10-09T11:51:46;101426.51;;;11.55;93.34
76229;BME280;65021;53.174;18.160;2023-10-09T11:54:52;101424.77;;;11.33;92.50
76229;BME280;65021;53.174;18.160;2023-10-09T11:57:23;101426.73;;;11.31;93.92
76229;BME280;65021;53.174;18.160;2023-10-09T11:59:57;101427.61;;;11.47;94.21
76229;BME280;65021;53.174;18.160;2023-10-09T12:02:27;101425.27;;;11.64;93.76
76229;BME280;65021;53.174;18.160;2023-10-09T12:04:54;101418.39;;;11.80;92.83
76229;BME280;65021;53.174;18.160;2023-10-09T12:07:24;101413.49;;;11.86;92.64
76229;BME280;65021;53.174;18.160;2023-10-09T12:09:51;101408.21;;;11.97;93.63
76229;BME280;65021;53.174;18.160;2023-10-09T12:12:22;101410.66;;;12.17;94.01
76229;BME280;65021;53.174;18.160;2023-10-09T12:14:53;101408.17;;;12.31;92.96
76229;BME280;65021;53.174;18.160;2023-10-09T12:17:19;101402.48;;;12.38;93.16
76229;BME280;65021;53.174;18.160;2023-10-09T12:19:50;101404.61;;;12.50;92.44
76229;BME280;65021;53.174;18.160;2023-10-09T12:22:17;101399.52;;;12.60;92.57
76229;BME280;65021;53.174;18.160;2023-10-09T12:24:47;101389.45;;;12.73;92.24
76229;BME280;65021;53.174;18.160;2023-10-09T12:27:13;101380.91;;;12.80;91.38
76229;BME280;65021;53.174;18.160;2023-10-09T12:29:40;101376.37;;;12.90;91.22
76229;BME280;65021;53.174;18.160;2023-10-09T12:32:10;101373.67;;;12.96;90.46
76229;BME280;65021;53.174;18.160;2023-10-09T12:34:39;101365.82;;;13.09;89.91
76229;BME280;65021;53.174;18.160;2023-10-09T12:37:05;101360.80;;;13.13;89.67
76229;BME280;65021;53.174;18.160;2023-10-09T12:39:32;101361.60;;;13.03;88.52
76229;BME280;65021;53.174;18.160;2023-10-09T12:42:06;101363.42;;;12.85;83.64
76229;BME280;65021;53.174;18.160;2023-10-09T12:44:33;101359.12;;;12.66;84.89
76229;BME280;65021;53.174;18.160;2023-10-09T12:47:08;101350.81;;;12.39;84.54
76229;BME280;65021;53.174;18.160;2023-10-09T12:49:37;101346.34;;;12.29;86.89
76229;BME280;65021;53.174;18.160;2023-10-09T12:52:07;101343.05;;;12.30;87.90
76229;BME280;65021;53.174;18.160;2023-10-09T12:54:43;101338.05;;;12.22;84.38
76229;BME280;65021;53.174;18.160;2023-10-09T12:57:13;101337.16;;;12.18;87.14
76229;BME280;65021;53.174;18.160;2023-10-09T12:59:45;101336.85;;;12.18;87.65
76229;BME280;65021;53.174;18.160;2023-10-09T13:02:15;101337.11;;;12.20;87.53
76229;BME280;65021;53.174;18.160;2023-10-09T13:04:55;101329.60;;;12.23;87.91
76229;BME280;65021;53.174;18.160;2023-10-09T13:07:22;101326.04;;;12.31;88.41
76229;BME280;65021;53.174;18.160;2023-10-09T13:09:49;101324.71;;;12.38;87.64
76229;BME280;65021;53.174;18.160;2023-10-09T13:13:22;101328.00;;;12.36;86.94
76229;BME280;65021;53.174;18.160;2023-10-09T13:15:49;101323.66;;;12.29;86.95
76229;BME280;65021;53.174;18.160;2023-10-09T13:18:15;101324.98;;;12.26;86.56
76229;BME280;65021;53.174;18.160;2023-10-09T13:20:42;101321.71;;;12.25;87.02
76229;BME280;65021;53.174;18.160;2023-10-09T13:23:09;101322.10;;;12.14;85.85
76229;BME280;65021;53.174;18.160;2023-10-09T13:25:41;101319.91;;;11.91;84.42
76229;BME280;65021;53.174;18.160;2023-10-09T13:28:07;101319.95;;;11.75;86.13
76229;BME280;65021;53.174;18.160;2023-10-09T13:30:37;101315.46;;;11.71;86.75
76229;BME280;65021;53.174;18.160;2023-10-09T13:33:05;101321.77;;;11.72;87.16
76229;BME280;65021;53.174;18.160;2023-10-09T13:35:32;101326.98;;;11.75;87.71
76229;BME280;65021;53.174;18.160;2023-10-09T13:38:04;101327.75;;;11.84;86.91